sensor_id;sensor_type;location;lat;lon;timestamp;temperature;humidity
27567;DHT22;15006;48.584;9.186;2022-09-27T00:01:02;7.20;97.60
27567;DHT22;15006;48.584;9.186;2022-09-27T00:03:29;7.20;97.70
27567;DHT22;15006;48.584;9.186;2022-09-27T00:06:03;7.10;97.90
27567;DHT22;15006;48.584;9.186;2022-09-27T00:08:32;7.20;98.20
27567;DHT22;15006;48.584;9.186;2022-09-27T00:11:03;7.20;98.40
27567;DHT22;15006;48.584;9.186;2022-09-27T00:13:30;7.20;98.60
27567;DHT22;15006;48.584;9.186;2022-09-27T00:16:00;7.20;98.80
27567;DHT22;15006;48.584;9.186;2022-09-27T00:18:29;7.20;98.90
27567;DHT22;15006;48.584;9.186;2022-09-27T00:20:56;7.20;99.10
27567;DHT22;15006;48.584;9.186;2022-09-27T00:23:23;7.10;99.10
27567;DHT22;15006;48.584;9.186;2022-09-27T00:25:55;7.20;99.20
27567;DHT22;15006;48.584;9.186;2022-09-27T00:28:22;7.10;99.30
27567;DHT22;15006;48.584;9.186;2022-09-27T00:30:48;7.10;99.50
27567;DHT22;15006;48.584;9.186;2022-09-27T00:33:14;7.10;99.60
27567;DHT22;15006;48.584;9.186;2022-09-27T00:35:40;7.10;99.70
27567;DHT22;15006;48.584;9.186;2022-09-27T00:38:05;7.10;99.80
27567;DHT22;15006;48.584;9.186;2022-09-27T00:40:31;7.10;99.80
27567;DHT22;15006;48.584;9.186;2022-09-27T00:42:57;7.10;99.90
27567;DHT22;15006;48.584;9.186;2022-09-27T00:45:23;7.10;99.80
27567;DHT22;15006;48.584;9.186;2022-09-27T00:47:59;7.10;99.90
27567;DHT22;15006;48.584;9.186;2022-09-27T00:50:31;7.10;99.90
27567;DHT22;15006;48.584;9.186;2022-09-27T00:53:14;7.10;99.90
27567;DHT22;15006;48.584;9.186;2022-09-27T00:55:42;7.10;99.90
27567;DHT22;15006;48.584;9.186;2022-09-27T00:58:10;7.10;99.90
27567;DHT22;15006;48.584;9.186;2022-09-27T01:00:38;7.10;99.90
27567;DHT22;15006;48.584;9.186;2022-09-27T01:03:08;7.10;99.90
27567;DHT22;15006;48.584;9.186;2022-09-27T01:05:41;7.10;99.90
27567;DHT22;15006;48.584;9.186;2022-09-27T01:08:09;7.10;99.90
27567;DHT22;15006;48.584;9.186;2022-09-27T01:10:37;7.20;99.90
27567;DHT22;15006;48.584;9.186;2022-09-27T01:15:42;7.20;99.90
27567;DHT22;15006;48.584;9.186;2022-09-27T01:26:12;7.20;99.90
27567;DHT22;15006;48.584;9.186;2022-09-27T01:31:29;7.30;99.90
27567;DHT22;15006;48.584;9.186;2022-09-27T01:34:00;7.30;99.90
27567;DHT22;15006;48.584;9.186;2022-09-27T01:41:52;7.40;99.90
27567;DHT22;15006;48.584;9.186;2022-09-27T01:47:33;7.40;99.90
27567;DHT22;15006;48.584;9.186;2022-09-27T01:50:05;7.40;99.90
27567;DHT22;15006;48.584;9.186;2022-09-27T01:52:54;7.40;99.90
27567;DHT22;15006;48.584;9.186;2022-09-27T01:55:22;7.40;99.90
27567;DHT22;15006;48.584;9.186;2022-09-27T01:57:54;7.40;99.90
27567;DHT22;15006;48.584;9.186;2022-09-27T02:00:22;7.40;99.90
27567;DHT22;15006;48.584;9.186;2022-09-27T02:02:58;7.40;99.90
27567;DHT22;15006;48.584;9.186;2022-09-27T02:05:31;7.40;99.90
27567;DHT22;15006;48.584;9.186;2022-09-27T02:08:03;7.40;99.90
27567;DHT22;15006;48.584;9.186;2022-09-27T02:10:39;7.50;99.90
27567;DHT22;15006;48.584;9.186;2022-09-27T02:13:24;7.50;99.90
27567;DHT22;15006;48.584;9.186;2022-09-27T02:16:02;7.50;99.90
27567;DHT22;15006;48.584;9.186;2022-09-27T02:18:51;7.50;99.90
27567;DHT22;15006;48.584;9.186;2022-09-27T02:21:28;7.50;99.90
27567;DHT22;15006;48.584;9.186;2022-09-27T02:23:57;7.50;99.90
27567;DHT22;15006;48.584;9.186;2022-09-27T02:26:39;7.50;99.90
27567;DHT22;15006;48.584;9.186;2022-09-27T02:29:09;7.50;99.90
27567;DHT22;15006;48.584;9.186;2022-09-27T02:31:38;7.50;99.90
27567;DHT22;15006;48.584;9.186;2022-09-27T02:34:15;7.50;99.90
27567;DHT22;15006;48.584;9.186;2022-09-27T02:36:47;7.40;99.90
27567;DHT22;15006;48.584;9.186;2022-09-27T02:39:13;7.40;99.90
27567;DHT22;15006;48.584;9.186;2022-09-27T02:41:39;7.40;99.90
27567;DHT22;15006;48.584;9.186;2022-09-27T02:44:06;7.40;99.90
27567;DHT22;15006;48.584;9.186;2022-09-27T02:47:36;7.40;99.90
27567;DHT22;15006;48.584;9.186;2022-09-27T03:00:18;7.30;99.90
27567;DHT22;15006;48.584;9.186;2022-09-27T03:05:55;7.30;99.90
27567;DHT22;15006;48.584;9.186;2022-09-27T03:08:26;7.40;99.90
27567;DHT22;15006;48.584;9.186;2022-09-27T03:10:52;7.40;99.90
27567;DHT22;15006;48.584;9.186;2022-09-27T03:13:18;7.30;99.90
27567;DHT22;15006;48.584;9.186;2022-09-27T03:15:44;7.30;99.90
27567;DHT22;15006;48.584;9.186;2022-09-27T03:18:09;7.30;99.90
27567;DHT22;15006;48.584;9.186;2022-09-27T03:20:35;7.30;99.90
27567;DHT22;15006;48.584;9.186;2022-09-27T03:23:01;7.30;99.90
27567;DHT22;15006;48.584;9.186;2022-09-27T03:25:27;7.30;99.90
27567;DHT22;15006;48.584;9.186;2022-09-27T03:27:53;7.30;99.90
27567;DHT22;15006;48.584;9.186;2022-09-27T03:30:19;7.30;99.90
27567;DHT22;15006;48.584;9.186;2022-09-27T03:32:45;7.30;99.90
27567;DHT22;15006;48.584;9.186;2022-09-27T03:35:11;7.30;99.90
27567;DHT22;15006;48.584;9.186;2022-09-27T03:37:38;7.30;99.90
27567;DHT22;15006;48.584;9.186;2022-09-27T03:40:04;7.20;99.90
27567;DHT22;15006;48.584;9.186;2022-09-27T03:42:30;7.20;99.90
27567;DHT22;15006;48.584;9.186;2022-09-27T03:44:56;7.30;99.90
27567;DHT22;15006;48.584;9.186;2022-09-27T03:47:22;7.30;99.90
27567;DHT22;15006;48.584;9.186;2022-09-27T03:49:48;7.20;99.90
27567;DHT22;15006;48.584;9.186;2022-09-27T03:52:14;7.20;99.90
27567;DHT22;15006;48.584;9.186;2022-09-27T03:54:41;7.20;99.70
27567;DHT22;15006;48.584;9.186;2022-09-27T03:57:07;7.20;99.10
27567;DHT22;15006;48.584;9.186;2022-09-27T03:59:33;7.10;99.20
27567;DHT22;15006;48.584;9.186;2022-09-27T04:01:59;7.10;98.70
27567;DHT22;15006;48.584;9.186;2022-09-27T04:04:24;7.10;99.10
27567;DHT22;15006;48.584;9.186;2022-09-27T04:06:50;7.00;99.20
27567;DHT22;15006;48.584;9.186;2022-09-27T04:09:16;7.10;99.50
27567;DHT22;15006;48.584;9.186;2022-09-27T04:11:42;7.00;99.40
27567;DHT22;15006;48.584;9.186;2022-09-27T04:14:08;6.90;99.80
27567;DHT22;15006;48.584;9.186;2022-09-27T04:16:37;6.90;99.30
27567;DHT22;15006;48.584;9.186;2022-09-27T04:19:05;6.90;98.60
27567;DHT22;15006;48.584;9.186;2022-09-27T04:21:32;6.90;99.30
27567;DHT22;15006;48.584;9.186;2022-09-27T04:23:59;6.90;99.30
27567;DHT22;15006;48.584;9.186;2022-09-27T04:26:25;6.90;98.90
27567;DHT22;15006;48.584;9.186;2022-09-27T04:28:51;6.90;99.20
27567;DHT22;15006;48.584;9.186;2022-09-27T04:31:17;6.80;98.90
27567;DHT22;15006;48.584;9.186;2022-09-27T04:33:44;6.80;99.00
27567;DHT22;15006;48.584;9.186;2022-09-27T04:36:14;6.80;99.00
27567;DHT22;15006;48.584;9.186;2022-09-27T04:38:54;6.80;98.90
27567;DHT22;15006;48.584;9.186;2022-09-27T04:41:21;6.70;99.20
27567;DHT22;15006;48.584;9.186;2022-09-27T04:43:48;6.70;99.50
27567;DHT22;15006;48.584;9.186;2022-09-27T04:46:15;6.70;99.40
27567;DHT22;15006;48.584;9.186;2022-09-27T04:48:41;6.70;99.40
27567;DHT22;15006;48.584;9.186;2022-09-27T04:51:08;6.70;99.80
27567;DHT22;15006;48.584;9.186;2022-09-27T04:53:34;6.70;99.90
27567;DHT22;15006;48.584;9.186;2022-09-27T04:56:00;6.70;99.90
27567;DHT22;15006;48.584;9.186;2022-09-27T04:58:31;6.60;99.90
27567;DHT22;15006;48.584;9.186;2022-09-27T05:00:58;6.60;99.90
27567;DHT22;15006;48.584;9.186;2022-09-27T05:03:26;6.60;99.90
27567;DHT22;15006;48.584;9.186;2022-09-27T05:05:52;6.60;99.90
27567;DHT22;15006;48.584;9.186;2022-09-27T05:08:18;6.60;99.90
27567;DHT22;15006;48.584;9.186;2022-09-27T05:10:45;6.60;99.90
27567;DHT22;15006;48.584;9.186;2022-09-27T05:13:12;6.50;99.90
27567;DHT22;15006;48.584;9.186;2022-09-27T05:15:39;6.50;99.90
27567;DHT22;15006;48.584;9.186;2022-09-27T05:18:06;6.50;99.90
27567;DHT22;15006;48.584;9.186;2022-09-27T05:20:33;6.50;99.90
27567;DHT22;15006;48.584;9.186;2022-09-27T05:22:59;6.50;99.90
27567;DHT22;15006;48.584;9.186;2022-09-27T05:25:25;6.50;99.90
27567;DHT22;15006;48.584;9.186;2022-09-27T05:27:51;6.50;99.90
27567;DHT22;15006;48.584;9.186;2022-09-27T05:30:18;6.50;99.90
27567;DHT22;15006;48.584;9.186;2022-09-27T05:32:44;6.50;99.90
27567;DHT22;15006;48.584;9.186;2022-09-27T05:35:13;6.50;99.90
27567;DHT22;15006;48.584;9.186;2022-09-27T05:37:39;6.50;99.90
27567;DHT22;15006;48.584;9.186;2022-09-27T05:40:05;6.50;99.90
27567;DHT22;15006;48.584;9.186;2022-09-27T05:42:31;6.50;99.90
27567;DHT22;15006;48.584;9.186;2022-09-27T05:45:03;6.50;99.90
27567;DHT22;15006;48.584;9.186;2022-09-27T05:47:30;6.40;99.90
27567;DHT22;15006;48.584;9.186;2022-09-27T05:49:56;6.50;99.90
27567;DHT22;15006;48.584;9.186;2022-09-27T05:52:22;6.40;99.90
27567;DHT22;15006;48.584;9.186;2022-09-27T05:54:48;6.40;99.90
27567;DHT22;15006;48.584;9.186;2022-09-27T05:57:13;6.40;99.90
27567;DHT22;15006;48.584;9.186;2022-09-27T05:59:39;6.40;99.90
27567;DHT22;15006;48.584;9.186;2022-09-27T06:02:05;6.40;99.90
27567;DHT22;15006;48.584;9.186;2022-09-27T06:04:31;6.40;99.90
27567;DHT22;15006;48.584;9.186;2022-09-27T06:06:57;6.40;99.90
27567;DHT22;15006;48.584;9.186;2022-09-27T06:09:23;6.40;99.90
27567;DHT22;15006;48.584;9.186;2022-09-27T06:11:51;6.40;99.90
27567;DHT22;15006;48.584;9.186;2022-09-27T06:14:18;6.40;99.90
27567;DHT22;15006;48.584;9.186;2022-09-27T06:16:44;6.40;99.90
27567;DHT22;15006;48.584;9.186;2022-09-27T06:19:10;6.40;99.90
27567;DHT22;15006;48.584;9.186;2022-09-27T06:21:36;6.50;99.90
27567;DHT22;15006;48.584;9.186;2022-09-27T06:24:02;6.40;99.90
27567;DHT22;15006;48.584;9.186;2022-09-27T06:26:28;6.50;99.90
27567;DHT22;15006;48.584;9.186;2022-09-27T06:28:54;6.50;99.90
27567;DHT22;15006;48.584;9.186;2022-09-27T06:31:21;6.50;99.90
27567;DHT22;15006;48.584;9.186;2022-09-27T06:33:47;6.60;99.90
27567;DHT22;15006;48.584;9.186;2022-09-27T06:36:14;6.60;99.90
27567;DHT22;15006;48.584;9.186;2022-09-27T06:38:39;6.60;99.90
27567;DHT22;15006;48.584;9.186;2022-09-27T06:41:05;6.60;99.90
27567;DHT22;15006;48.584;9.186;2022-09-27T06:43:33;6.60;99.90
27567;DHT22;15006;48.584;9.186;2022-09-27T06:46:00;6.70;99.90
27567;DHT22;15006;48.584;9.186;2022-09-27T06:48:30;6.60;99.90
27567;DHT22;15006;48.584;9.186;2022-09-27T06:50:57;6.70;99.90
27567;DHT22;15006;48.584;9.186;2022-09-27T06:53:23;6.70;99.90
27567;DHT22;15006;48.584;9.186;2022-09-27T06:55:49;6.70;99.90
27567;DHT22;15006;48.584;9.186;2022-09-27T06:58:18;6.70;99.90
27567;DHT22;15006;48.584;9.186;2022-09-27T07:01:02;6.70;99.90
27567;DHT22;15006;48.584;9.186;2022-09-27T07:03:28;6.70;99.90
27567;DHT22;15006;48.584;9.186;2022-09-27T07:06:01;6.70;99.90
27567;DHT22;15006;48.584;9.186;2022-09-27T07:08:29;6.70;99.90
27567;DHT22;15006;48.584;9.186;2022-09-27T07:10:59;6.70;99.90
27567;DHT22;15006;48.584;9.186;2022-09-27T07:13:27;6.70;99.90
27567;DHT22;15006;48.584;9.186;2022-09-27T07:15:57;6.80;99.90
27567;DHT22;15006;48.584;9.186;2022-09-27T07:18:23;6.80;99.90
27567;DHT22;15006;48.584;9.186;2022-09-27T07:20:49;6.80;99.90
27567;DHT22;15006;48.584;9.186;2022-09-27T07:23:15;6.80;99.90
27567;DHT22;15006;48.584;9.186;2022-09-27T07:25:41;6.80;99.90
27567;DHT22;15006;48.584;9.186;2022-09-27T07:28:09;6.90;99.90
27567;DHT22;15006;48.584;9.186;2022-09-27T07:30:41;6.90;99.90
27567;DHT22;15006;48.584;9.186;2022-09-27T07:33:07;6.90;99.90
27567;DHT22;15006;48.584;9.186;2022-09-27T07:35:33;7.00;99.90
27567;DHT22;15006;48.584;9.186;2022-09-27T07:38:04;7.00;99.90
27567;DHT22;15006;48.584;9.186;2022-09-27T07:40:33;7.10;99.90
27567;DHT22;15006;48.584;9.186;2022-09-27T07:43:00;7.20;99.90
27567;DHT22;15006;48.584;9.186;2022-09-27T07:45:27;7.20;99.90
27567;DHT22;15006;48.584;9.186;2022-09-27T07:47:53;7.30;99.90
27567;DHT22;15006;48.584;9.186;2022-09-27T07:50:19;7.30;99.90
27567;DHT22;15006;48.584;9.186;2022-09-27T07:52:46;7.40;99.50
27567;DHT22;15006;48.584;9.186;2022-09-27T07:55:14;7.50;99.30
27567;DHT22;15006;48.584;9.186;2022-09-27T07:57:40;7.70;98.40
27567;DHT22;15006;48.584;9.186;2022-09-27T08:00:07;7.70;95.30
27567;DHT22;15006;48.584;9.186;2022-09-27T08:02:34;7.80;96.20
27567;DHT22;15006;48.584;9.186;2022-09-27T08:05:00;7.90;97.60
27567;DHT22;15006;48.584;9.186;2022-09-27T08:07:27;7.90;98.60
27567;DHT22;15006;48.584;9.186;2022-09-27T08:09:53;7.90;94.20
27567;DHT22;15006;48.584;9.186;2022-09-27T08:12:20;8.00;95.50
27567;DHT22;15006;48.584;9.186;2022-09-27T08:14:47;8.10;95.60
27567;DHT22;15006;48.584;9.186;2022-09-27T08:17:13;8.10;95.70
27567;DHT22;15006;48.584;9.186;2022-09-27T08:19:39;8.10;95.20
27567;DHT22;15006;48.584;9.186;2022-09-27T08:22:05;8.10;94.30
27567;DHT22;15006;48.584;9.186;2022-09-27T08:24:34;8.10;94.20
27567;DHT22;15006;48.584;9.186;2022-09-27T08:27:01;8.00;94.30
27567;DHT22;15006;48.584;9.186;2022-09-27T08:29:27;8.00;91.40
27567;DHT22;15006;48.584;9.186;2022-09-27T08:31:53;8.00;90.90
27567;DHT22;15006;48.584;9.186;2022-09-27T08:34:19;8.00;90.80
27567;DHT22;15006;48.584;9.186;2022-09-27T08:36:46;8.00;91.50
27567;DHT22;15006;48.584;9.186;2022-09-27T08:39:12;8.00;91.50
27567;DHT22;15006;48.584;9.186;2022-09-27T08:42:01;8.00;93.10
27567;DHT22;15006;48.584;9.186;2022-09-27T08:44:52;8.10;93.10
27567;DHT22;15006;48.584;9.186;2022-09-27T08:47:26;8.10;93.20
27567;DHT22;15006;48.584;9.186;2022-09-27T08:49:58;8.20;93.40
27567;DHT22;15006;48.584;9.186;2022-09-27T08:52:47;8.30;91.90
27567;DHT22;15006;48.584;9.186;2022-09-27T08:57:54;8.40;91.00
27567;DHT22;15006;48.584;9.186;2022-09-27T09:00:21;8.30;91.00
27567;DHT22;15006;48.584;9.186;2022-09-27T09:02:47;8.20;91.40
27567;DHT22;15006;48.584;9.186;2022-09-27T09:05:16;8.10;90.30
27567;DHT22;15006;48.584;9.186;2022-09-27T09:13:38;7.70;91.10
27567;DHT22;15006;48.584;9.186;2022-09-27T09:24:27;7.50;92.40
27567;DHT22;15006;48.584;9.186;2022-09-27T09:35:15;7.50;92.10
27567;DHT22;15006;48.584;9.186;2022-09-27T09:37:48;7.50;92.40
27567;DHT22;15006;48.584;9.186;2022-09-27T09:42:45;7.70;93.20
27567;DHT22;15006;48.584;9.186;2022-09-27T09:45:29;7.80;93.00
27567;DHT22;15006;48.584;9.186;2022-09-27T09:48:01;7.90;91.40
27567;DHT22;15006;48.584;9.186;2022-09-27T09:50:32;8.00;92.50
27567;DHT22;15006;48.584;9.186;2022-09-27T09:53:12;8.10;91.60
27567;DHT22;15006;48.584;9.186;2022-09-27T09:55:39;8.30;89.20
27567;DHT22;15006;48.584;9.186;2022-09-27T09:58:19;8.40;91.00
27567;DHT22;15006;48.584;9.186;2022-09-27T10:01:12;8.50;90.00
27567;DHT22;15006;48.584;9.186;2022-09-27T10:03:39;8.70;90.40
27567;DHT22;15006;48.584;9.186;2022-09-27T10:06:05;8.80;87.20
27567;DHT22;15006;48.584;9.186;2022-09-27T10:08:31;9.00;88.30
27567;DHT22;15006;48.584;9.186;2022-09-27T10:10:57;9.00;87.20
27567;DHT22;15006;48.584;9.186;2022-09-27T10:13:23;9.10;89.30
27567;DHT22;15006;48.584;9.186;2022-09-27T10:15:53;9.10;89.70
27567;DHT22;15006;48.584;9.186;2022-09-27T10:18:27;9.20;85.70
27567;DHT22;15006;48.584;9.186;2022-09-27T10:20:56;9.40;84.30
27567;DHT22;15006;48.584;9.186;2022-09-27T10:23:24;9.60;84.60
27567;DHT22;15006;48.584;9.186;2022-09-27T10:26:02;9.90;81.10
27567;DHT22;15006;48.584;9.186;2022-09-27T10:28:33;10.10;80.60
27567;DHT22;15006;48.584;9.186;2022-09-27T10:31:02;10.30;81.00
27567;DHT22;15006;48.584;9.186;2022-09-27T10:33:34;10.60;82.70
27567;DHT22;15006;48.584;9.186;2022-09-27T10:36:02;10.70;75.00
27567;DHT22;15006;48.584;9.186;2022-09-27T10:38:35;10.70;72.90
27567;DHT22;15006;48.584;9.186;2022-09-27T10:43:48;10.60;77.60
27567;DHT22;15006;48.584;9.186;2022-09-27T10:46:23;10.50;75.40
27567;DHT22;15006;48.584;9.186;2022-09-27T10:51:54;10.50;77.30
27567;DHT22;15006;48.584;9.186;2022-09-27T10:54:22;10.40;74.80
27567;DHT22;15006;48.584;9.186;2022-09-27T10:57:03;10.40;74.30
27567;DHT22;15006;48.584;9.186;2022-09-27T10:59:32;10.40;76.80
27567;DHT22;15006;48.584;9.186;2022-09-27T11:02:03;10.30;76.10
27567;DHT22;15006;48.584;9.186;2022-09-27T11:04:31;10.40;77.10
27567;DHT22;15006;48.584;9.186;2022-09-27T11:07:06;10.40;75.80
27567;DHT22;15006;48.584;9.186;2022-09-27T11:09:43;10.60;75.50
27567;DHT22;15006;48.584;9.186;2022-09-27T11:12:20;10.80;77.00
27567;DHT22;15006;48.584;9.186;2022-09-27T11:14:50;11.20;74.90
27567;DHT22;15006;48.584;9.186;2022-09-27T11:17:31;11.50;68.30
27567;DHT22;15006;48.584;9.186;2022-09-27T11:25:38;11.90;69.00
27567;DHT22;15006;48.584;9.186;2022-09-27T11:28:40;11.80;66.50
27567;DHT22;15006;48.584;9.186;2022-09-27T11:34:02;11.40;67.70
27567;DHT22;15006;48.584;9.186;2022-09-27T12:04:11;10.60;68.20
27567;DHT22;15006;48.584;9.186;2022-09-27T12:06:54;10.50;68.20
27567;DHT22;15006;48.584;9.186;2022-09-27T12:09:34;10.30;68.40
27567;DHT22;15006;48.584;9.186;2022-09-27T12:12:03;10.10;67.90
27567;DHT22;15006;48.584;9.186;2022-09-27T12:14:51;10.00;71.20
27567;DHT22;15006;48.584;9.186;2022-09-27T12:17:25;9.80;73.40
27567;DHT22;15006;48.584;9.186;2022-09-27T12:19:54;9.60;73.60
27567;DHT22;15006;48.584;9.186;2022-09-27T12:22:24;9.50;74.20
27567;DHT22;15006;48.584;9.186;2022-09-27T12:24:53;9.40;72.60
27567;DHT22;15006;48.584;9.186;2022-09-27T12:27:23;9.20;74.30
27567;DHT22;15006;48.584;9.186;2022-09-27T12:29:56;9.10;75.70
27567;DHT22;15006;48.584;9.186;2022-09-27T12:32:25;9.00;76.70
27567;DHT22;15006;48.584;9.186;2022-09-27T12:37:27;8.70;79.40
27567;DHT22;15006;48.584;9.186;2022-09-27T12:39:59;8.60;81.00
27567;DHT22;15006;48.584;9.186;2022-09-27T12:42:35;8.40;81.40
27567;DHT22;15006;48.584;9.186;2022-09-27T12:45:04;8.30;82.00
27567;DHT22;15006;48.584;9.186;2022-09-27T12:47:38;8.20;83.00
27567;DHT22;15006;48.584;9.186;2022-09-27T12:52:49;8.00;85.20
27567;DHT22;15006;48.584;9.186;2022-09-27T12:55:41;7.90;85.30
27567;DHT22;15006;48.584;9.186;2022-09-27T13:14:53;8.30;88.80
27567;DHT22;15006;48.584;9.186;2022-09-27T13:17:30;8.40;90.30
27567;DHT22;15006;48.584;9.186;2022-09-27T13:22:52;8.90;90.80
27567;DHT22;15006;48.584;9.186;2022-09-27T13:33:33;10.20;85.70
27567;DHT22;15006;48.584;9.186;2022-09-27T13:36:25;10.50;87.20
27567;DHT22;15006;48.584;9.186;2022-09-27T13:49:49;12.40;70.90
27567;DHT22;15006;48.584;9.186;2022-09-27T13:52:18;12.60;68.00
27567;DHT22;15006;48.584;9.186;2022-09-27T13:55:36;12.70;67.60
27567;DHT22;15006;48.584;9.186;2022-09-27T13:58:14;12.80;65.70
27567;DHT22;15006;48.584;9.186;2022-09-27T14:00:49;12.70;65.00
27567;DHT22;15006;48.584;9.186;2022-09-27T14:03:19;12.50;67.90
27567;DHT22;15006;48.584;9.186;2022-09-27T14:06:00;12.30;68.60
27567;DHT22;15006;48.584;9.186;2022-09-27T14:08:31;12.10;65.90
27567;DHT22;15006;48.584;9.186;2022-09-27T14:10:59;11.80;66.20
27567;DHT22;15006;48.584;9.186;2022-09-27T14:13:27;11.50;67.90
27567;DHT22;15006;48.584;9.186;2022-09-27T14:15:57;11.30;66.40
27567;DHT22;15006;48.584;9.186;2022-09-27T14:18:24;11.00;67.20
27567;DHT22;15006;48.584;9.186;2022-09-27T14:20:50;10.70;66.00
27567;DHT22;15006;48.584;9.186;2022-09-27T14:23:21;10.50;67.30
27567;DHT22;15006;48.584;9.186;2022-09-27T14:25:48;10.20;68.70
27567;DHT22;15006;48.584;9.186;2022-09-27T14:28:20;10.10;71.50
27567;DHT22;15006;48.584;9.186;2022-09-27T14:30:48;9.90;70.60
27567;DHT22;15006;48.584;9.186;2022-09-27T14:33:29;9.70;71.60
27567;DHT22;15006;48.584;9.186;2022-09-27T14:35:56;9.70;72.40
27567;DHT22;15006;48.584;9.186;2022-09-27T14:38:40;9.50;71.90
27567;DHT22;15006;48.584;9.186;2022-09-27T14:41:06;9.40;72.10
27567;DHT22;15006;48.584;9.186;2022-09-27T14:43:33;9.30;74.90
27567;DHT22;15006;48.584;9.186;2022-09-27T14:46:01;9.30;75.10
27567;DHT22;15006;48.584;9.186;2022-09-27T14:48:32;9.30;75.20
27567;DHT22;15006;48.584;9.186;2022-09-27T14:51:01;9.30;73.20
27567;DHT22;15006;48.584;9.186;2022-09-27T14:53:30;9.20;72.40
27567;DHT22;15006;48.584;9.186;2022-09-27T14:55:58;9.20;73.70
27567;DHT22;15006;48.584;9.186;2022-09-27T14:58:26;9.30;73.30
27567;DHT22;15006;48.584;9.186;2022-09-27T15:00:53;9.20;73.50
27567;DHT22;15006;48.584;9.186;2022-09-27T15:03:24;9.20;74.40
27567;DHT22;15006;48.584;9.186;2022-09-27T15:05:52;9.10;74.20
27567;DHT22;15006;48.584;9.186;2022-09-27T15:08:19;9.00;74.30
27567;DHT22;15006;48.584;9.186;2022-09-27T15:10:48;9.00;75.10
27567;DHT22;15006;48.584;9.186;2022-09-27T15:13:14;9.00;76.10
27567;DHT22;15006;48.584;9.186;2022-09-27T15:15:43;9.00;77.00
27567;DHT22;15006;48.584;9.186;2022-09-27T15:20:57;9.10;74.70
27567;DHT22;15006;48.584;9.186;2022-09-27T15:23:27;9.20;75.10
27567;DHT22;15006;48.584;9.186;2022-09-27T15:28:36;9.40;75.50
27567;DHT22;15006;48.584;9.186;2022-09-27T15:31:03;9.60;75.90
27567;DHT22;15006;48.584;9.186;2022-09-27T15:33:33;9.70;69.60
27567;DHT22;15006;48.584;9.186;2022-09-27T15:36:00;9.70;71.40
27567;DHT22;15006;48.584;9.186;2022-09-27T15:43:32;9.50;71.20
27567;DHT22;15006;48.584;9.186;2022-09-27T15:46:05;9.40;70.60
27567;DHT22;15006;48.584;9.186;2022-09-27T15:51:52;9.10;70.10
27567;DHT22;15006;48.584;9.186;2022-09-27T15:54:20;9.00;71.00
27567;DHT22;15006;48.584;9.186;2022-09-27T15:56:47;8.90;74.50
27567;DHT22;15006;48.584;9.186;2022-09-27T15:59:17;8.80;72.30
27567;DHT22;15006;48.584;9.186;2022-09-27T16:01:45;8.70;73.90
27567;DHT22;15006;48.584;9.186;2022-09-27T16:04:12;8.60;73.40
27567;DHT22;15006;48.584;9.186;2022-09-27T16:06:38;8.50;75.40
27567;DHT22;15006;48.584;9.186;2022-09-27T16:09:09;8.50;74.70
27567;DHT22;15006;48.584;9.186;2022-09-27T16:11:40;8.40;73.30
27567;DHT22;15006;48.584;9.186;2022-09-27T16:14:06;8.30;74.60
27567;DHT22;15006;48.584;9.186;2022-09-27T16:16:32;8.30;75.50
27567;DHT22;15006;48.584;9.186;2022-09-27T16:18:58;8.30;76.60
27567;DHT22;15006;48.584;9.186;2022-09-27T16:21:24;8.30;76.80
27567;DHT22;15006;48.584;9.186;2022-09-27T16:23:50;8.30;75.50
27567;DHT22;15006;48.584;9.186;2022-09-27T16:26:16;8.20;75.90
27567;DHT22;15006;48.584;9.186;2022-09-27T16:28:43;8.20;75.50
27567;DHT22;15006;48.584;9.186;2022-09-27T16:31:09;8.10;77.80
27567;DHT22;15006;48.584;9.186;2022-09-27T16:33:37;8.10;78.00
27567;DHT22;15006;48.584;9.186;2022-09-27T16:36:04;7.90;77.60
27567;DHT22;15006;48.584;9.186;2022-09-27T16:38:31;7.90;78.70
27567;DHT22;15006;48.584;9.186;2022-09-27T16:41:00;7.80;79.60
27567;DHT22;15006;48.584;9.186;2022-09-27T16:43:27;7.60;79.40
27567;DHT22;15006;48.584;9.186;2022-09-27T16:45:54;7.50;79.70
27567;DHT22;15006;48.584;9.186;2022-09-27T16:48:23;7.40;80.30
27567;DHT22;15006;48.584;9.186;2022-09-27T16:50:50;7.40;81.20
27567;DHT22;15006;48.584;9.186;2022-09-27T16:53:34;7.30;81.50
27567;DHT22;15006;48.584;9.186;2022-09-27T16:56:00;7.20;82.30
27567;DHT22;15006;48.584;9.186;2022-09-27T16:58:27;7.20;82.70
27567;DHT22;15006;48.584;9.186;2022-09-27T17:00:56;7.10;83.10
27567;DHT22;15006;48.584;9.186;2022-09-27T17:03:22;7.10;82.80
27567;DHT22;15006;48.584;9.186;2022-09-27T17:05:48;7.10;83.90
27567;DHT22;15006;48.584;9.186;2022-09-27T17:08:14;7.10;84.20
27567;DHT22;15006;48.584;9.186;2022-09-27T17:10:43;7.10;84.70
27567;DHT22;15006;48.584;9.186;2022-09-27T17:13:09;7.10;84.40
27567;DHT22;15006;48.584;9.186;2022-09-27T17:15:36;7.00;83.90
27567;DHT22;15006;48.584;9.186;2022-09-27T17:18:02;7.00;83.90
27567;DHT22;15006;48.584;9.186;2022-09-27T17:20:28;7.00;82.80
27567;DHT22;15006;48.584;9.186;2022-09-27T17:22:54;7.00;83.60
27567;DHT22;15006;48.584;9.186;2022-09-27T17:25:20;7.00;84.40
27567;DHT22;15006;48.584;9.186;2022-09-27T17:27:46;7.00;84.90
27567;DHT22;15006;48.584;9.186;2022-09-27T17:30:12;7.00;83.70
27567;DHT22;15006;48.584;9.186;2022-09-27T17:32:38;6.90;84.80
27567;DHT22;15006;48.584;9.186;2022-09-27T17:35:04;6.90;85.90
27567;DHT22;15006;48.584;9.186;2022-09-27T17:37:34;6.90;85.50
27567;DHT22;15006;48.584;9.186;2022-09-27T17:40:00;6.80;85.50
27567;DHT22;15006;48.584;9.186;2022-09-27T17:42:26;6.70;85.80
27567;DHT22;15006;48.584;9.186;2022-09-27T17:44:53;6.70;86.70
27567;DHT22;15006;48.584;9.186;2022-09-27T17:47:19;6.70;87.30
27567;DHT22;15006;48.584;9.186;2022-09-27T17:50:03;6.60;87.90
27567;DHT22;15006;48.584;9.186;2022-09-27T17:52:48;6.60;88.40
27567;DHT22;15006;48.584;9.186;2022-09-27T17:55:14;6.50;89.00
27567;DHT22;15006;48.584;9.186;2022-09-27T17:57:40;6.50;89.50
27567;DHT22;15006;48.584;9.186;2022-09-27T18:00:06;6.50;90.00
27567;DHT22;15006;48.584;9.186;2022-09-27T18:02:33;6.50;90.30
27567;DHT22;15006;48.584;9.186;2022-09-27T18:04:58;6.40;90.50
27567;DHT22;15006;48.584;9.186;2022-09-27T18:07:24;6.40;90.80
27567;DHT22;15006;48.584;9.186;2022-09-27T18:09:50;6.40;91.00
27567;DHT22;15006;48.584;9.186;2022-09-27T18:12:16;6.30;91.10
27567;DHT22;15006;48.584;9.186;2022-09-27T18:14:42;6.30;91.30
27567;DHT22;15006;48.584;9.186;2022-09-27T18:17:09;6.30;91.60
27567;DHT22;15006;48.584;9.186;2022-09-27T18:19:37;6.20;91.80
27567;DHT22;15006;48.584;9.186;2022-09-27T18:22:03;6.20;92.10
27567;DHT22;15006;48.584;9.186;2022-09-27T18:24:29;6.20;92.30
27567;DHT22;15006;48.584;9.186;2022-09-27T18:26:56;6.10;92.50
27567;DHT22;15006;48.584;9.186;2022-09-27T18:29:24;6.10;92.80
27567;DHT22;15006;48.584;9.186;2022-09-27T18:31:50;6.10;93.00
27567;DHT22;15006;48.584;9.186;2022-09-27T18:34:16;6.10;93.30
27567;DHT22;15006;48.584;9.186;2022-09-27T18:36:42;6.10;93.60
27567;DHT22;15006;48.584;9.186;2022-09-27T18:39:10;6.00;93.90
27567;DHT22;15006;48.584;9.186;2022-09-27T18:41:37;6.00;94.10